sensor_id;sensor_type;location;lat;lon;timestamp;pressure;altitude;pressure_sealevel;temperature;humidity
68137;BME280;54939;50.826;9.030;2024-01-15T00:00:00;97273.50;;;3.16;67.74
68137;BME280;54939;50.826;9.030;2024-01-15T00:00:30;97269.91;;;3.17;67.74
68137;BME280;54939;50.826;9.030;2024-01-15T00:01:00;97274.19;;;3.18;67.69
68137;BME280;54939;50.826;9.030;2024-01-15T00:01:30;97273.38;;;3.18;67.75
68137;BME280;54939;50.826;9.030;2024-01-15T00:02:01;97276.00;;;3.18;67.32
68137;BME280;54939;50.826;9.030;2024-01-15T00:02:31;97269.91;;;3.17;67.58
68137;BME280;54939;50.826;9.030;2024-01-15T00:03:01;97272.53;;;3.17;67.34
68137;BME280;54939;50.826;9.030;2024-01-15T00:03:31;97274.34;;;3.17;67.28
68137;BME280;54939;50.826;9.030;2024-01-15T00:04:01;97268.38;;;3.15;67.10
68137;BME280;54939;50.826;9.030;2024-01-15T00:04:36;97278.91;;;3.15;67.92
68137;BME280;54939;50.826;9.030;2024-01-15T00:05:06;97268.38;;;3.15;67.87
68137;BME280;54939;50.826;9.030;2024-01-15T00:05:36;97264.91;;;3.14;67.86
68137;BME280;54939;50.826;9.030;2024-01-15T00:06:06;97262.13;;;3.16;68.37
68137;BME280;54939;50.826;9.030;2024-01-15T00:06:37;97265.72;;;3.15;67.15
68137;BME280;54939;50.826;9.030;2024-01-15T00:07:07;97270.03;;;3.16;67.79
68137;BME280;54939;50.826;9.030;2024-01-15T00:07:37;97256.84;;;3.16;67.41
68137;BME280;54939;50.826;9.030;2024-01-15T00:08:07;97263.09;;;3.15;67.42
68137;BME280;54939;50.826;9.030;2024-01-15T00:08:38;97259.50;;;3.16;67.88
68137;BME280;54939;50.826;9.030;2024-01-15T00:09:09;97263.81;;;3.17;67.34
68137;BME280;54939;50.826;9.030;2024-01-15T00:09:40;97259.34;;;3.17;67.41
68137;BME280;54939;50.826;9.030;2024-01-15T00:10:10;97262.81;;;3.18;67.46
68137;BME280;54939;50.826;9.030;2024-01-15T00:10:40;97259.34;;;3.17;67.44
68137;BME280;54939;50.826;9.030;2024-01-15T00:11:11;97268.09;;;3.18;67.55
68137;BME280;54939;50.826;9.030;2024-01-15T00:11:41;97265.59;;;3.16;66.99
68137;BME280;54939;50.826;9.030;2024-01-15T00:12:12;97259.50;;;3.16;67.38
68137;BME280;54939;50.826;9.030;2024-01-15T00:12:42;97263.81;;;3.17;67.84
68137;BME280;54939;50.826;9.030;2024-01-15T00:13:12;97259.34;;;3.17;67.32
68137;BME280;54939;50.826;9.030;2024-01-15T00:13:42;97259.34;;;3.17;68.16
68137;BME280;54939;50.826;9.030;2024-01-15T00:14:12;97260.19;;;3.18;68.04
68137;BME280;54939;50.826;9.030;2024-01-15T00:14:44;97256.72;;;3.17;68.20
68137;BME280;54939;50.826;9.030;2024-01-15T00:15:14;97246.19;;;3.17;67.44
68137;BME280;54939;50.826;9.030;2024-01-15T00:15:44;97254.91;;;3.18;67.95
68137;BME280;54939;50.826;9.030;2024-01-15T00:16:15;97244.50;;;3.16;67.88
68137;BME280;54939;50.826;9.030;2024-01-15T00:16:45;97248.13;;;3.15;67.61
68137;BME280;54939;50.826;9.030;2024-01-15T00:17:15;97246.31;;;3.16;67.86
68137;BME280;54939;50.826;9.030;2024-01-15T00:17:45;97250.63;;;3.17;67.52
68137;BME280;54939;50.826;9.030;2024-01-15T00:18:15;97239.22;;;3.16;67.66
68137;BME280;54939;50.826;9.030;2024-01-15T00:18:45;97249.78;;;3.16;67.89
68137;BME280;54939;50.826;9.030;2024-01-15T00:19:16;97242.69;;;3.17;67.67
68137;BME280;54939;50.826;9.030;2024-01-15T00:19:46;97239.09;;;3.18;67.55
68137;BME280;54939;50.826;9.030;2024-01-15T00:20:16;97240.91;;;3.17;67.16
68137;BME280;54939;50.826;9.030;2024-01-15T00:20:46;97239.09;;;3.18;67.82
68137;BME280;54939;50.826;9.030;2024-01-15T00:21:16;97240.06;;;3.17;67.42
68137;BME280;54939;50.826;9.030;2024-01-15T00:21:47;97234.78;;;3.17;67.82
68137;BME280;54939;50.826;9.030;2024-01-15T00:22:17;97233.97;;;3.16;67.77
68137;BME280;54939;50.826;9.030;2024-01-15T00:22:47;97242.53;;;3.18;67.98
68137;BME280;54939;50.826;9.030;2024-01-15T00:23:17;97240.06;;;3.17;68.13
68137;BME280;54939;50.826;9.030;2024-01-15T00:23:47;97233.00;;;3.17;67.11
68137;BME280;54939;50.826;9.030;2024-01-15T00:24:17;97240.06;;;3.17;67.85
68137;BME280;54939;50.826;9.030;2024-01-15T00:24:48;97225.22;;;3.16;67.57
68137;BME280;54939;50.826;9.030;2024-01-15T00:25:18;97233.81;;;3.18;67.45
68137;BME280;54939;50.826;9.030;2024-01-15T00:25:48;97232.00;;;3.18;67.72
68137;BME280;54939;50.826;9.030;2024-01-15T00:26:18;97236.47;;;3.18;67.32
68137;BME280;54939;50.826;9.030;2024-01-15T00:26:48;97232.16;;;3.17;67.84
68137;BME280;54939;50.826;9.030;2024-01-15T00:27:18;97227.84;;;3.16;67.67
68137;BME280;54939;50.826;9.030;2024-01-15T00:27:48;97231.31;;;3.16;67.17
68137;BME280;54939;50.826;9.030;2024-01-15T00:28:19;97233.25;;;3.14;67.51
68137;BME280;54939;50.826;9.030;2024-01-15T00:28:49;97231.47;;;3.15;67.77
68137;BME280;54939;50.826;9.030;2024-01-15T00:29:19;97231.47;;;3.15;67.66
68137;BME280;54939;50.826;9.030;2024-01-15T00:29:49;97229.66;;;3.15;67.53
68137;BME280;54939;50.826;9.030;2024-01-15T00:30:24;97222.59;;;3.16;67.79
68137;BME280;54939;50.826;9.030;2024-01-15T00:30:54;97226.06;;;3.16;67.34
68137;BME280;54939;50.826;9.030;2024-01-15T00:31:24;97222.59;;;3.16;67.80
68137;BME280;54939;50.826;9.030;2024-01-15T00:31:54;97226.19;;;3.15;67.60
68137;BME280;54939;50.826;9.030;2024-01-15T00:32:24;97226.19;;;3.15;67.41
68137;BME280;54939;50.826;9.030;2024-01-15T00:32:54;97227.84;;;3.16;67.38
68137;BME280;54939;50.826;9.030;2024-01-15T00:33:25;97228.81;;;3.15;67.37
68137;BME280;54939;50.826;9.030;2024-01-15T00:33:55;97224.38;;;3.15;67.35
68137;BME280;54939;50.826;9.030;2024-01-15T00:34:25;97227.03;;;3.15;67.90
68137;BME280;54939;50.826;9.030;2024-01-15T00:34:55;97220.09;;;3.14;67.89
68137;BME280;54939;50.826;9.030;2024-01-15T00:35:25;97226.19;;;3.15;68.20
68137;BME280;54939;50.826;9.030;2024-01-15T00:35:56;97220.09;;;3.14;67.90
68137;BME280;54939;50.826;9.030;2024-01-15T00:36:26;97217.31;;;3.16;67.93
68137;BME280;54939;50.826;9.030;2024-01-15T00:36:56;97225.22;;;3.16;67.38
68137;BME280;54939;50.826;9.030;2024-01-15T00:37:26;97223.41;;;3.16;67.74
68137;BME280;54939;50.826;9.030;2024-01-15T00:37:56;97219.63;;;3.19;68.00
68137;BME280;54939;50.826;9.030;2024-01-15T00:38:26;97225.91;;;3.18;67.97
68137;BME280;54939;50.826;9.030;2024-01-15T00:38:56;97229.34;;;3.18;68.00
68137;BME280;54939;50.826;9.030;2024-01-15T00:39:27;97224.09;;;3.18;67.83
68137;BME280;54939;50.826;9.030;2024-01-15T00:39:57;97226.72;;;3.18;67.93
68137;BME280;54939;50.826;9.030;2024-01-15T00:40:27;97232.81;;;3.19;67.63
68137;BME280;54939;50.826;9.030;2024-01-15T00:40:57;97227.53;;;3.19;67.89
68137;BME280;54939;50.826;9.030;2024-01-15T00:41:27;97220.63;;;3.18;67.58
68137;BME280;54939;50.826;9.030;2024-01-15T00:41:58;97224.25;;;3.17;66.97
68137;BME280;54939;50.826;9.030;2024-01-15T00:42:28;97218.97;;;3.17;67.22
68137;BME280;54939;50.826;9.030;2024-01-15T00:42:58;97222.59;;;3.16;67.58
68137;BME280;54939;50.826;9.030;2024-01-15T00:43:28;97219.94;;;3.16;67.75
68137;BME280;54939;50.826;9.030;2024-01-15T00:43:58;97218.16;;;3.16;68.10
68137;BME280;54939;50.826;9.030;2024-01-15T00:44:28;97217.31;;;3.16;67.62
68137;BME280;54939;50.826;9.030;2024-01-15T00:44:58;97212.88;;;3.16;67.60
68137;BME280;54939;50.826;9.030;2024-01-15T00:45:29;97212.88;;;3.16;67.35
68137;BME280;54939;50.826;9.030;2024-01-15T00:46:01;97213.69;;;3.17;67.64
68137;BME280;54939;50.826;9.030;2024-01-15T00:46:31;97208.56;;;3.15;67.52
68137;BME280;54939;50.826;9.030;2024-01-15T00:47:01;97201.50;;;3.16;67.60
68137;BME280;54939;50.826;9.030;2024-01-15T00:47:31;97204.13;;;3.16;67.65
68137;BME280;54939;50.826;9.030;2024-01-15T00:48:02;97211.19;;;3.15;67.14
68137;BME280;54939;50.826;9.030;2024-01-15T00:48:32;97209.25;;;3.17;67.59
68137;BME280;54939;50.826;9.030;2024-01-15T00:49:02;97212.03;;;3.16;67.33
68137;BME280;54939;50.826;9.030;2024-01-15T00:49:33;97211.06;;;3.17;67.51
68137;BME280;54939;50.826;9.030;2024-01-15T00:50:03;97207.59;;;3.16;67.33
68137;BME280;54939;50.826;9.030;2024-01-15T00:50:33;97213.84;;;3.15;67.24
68137;BME280;54939;50.826;9.030;2024-01-15T00:51:04;97212.03;;;3.16;67.58
68137;BME280;54939;50.826;9.030;2024-01-15T00:51:34;97212.16;;;3.14;67.36
68137;BME280;54939;50.826;9.030;2024-01-15T00:52:04;97206.91;;;3.14;67.74
68137;BME280;54939;50.826;9.030;2024-01-15T00:52:35;97212.16;;;3.14;67.81
68137;BME280;54939;50.826;9.030;2024-01-15T00:53:05;97221.06;;;3.13;67.73
68137;BME280;54939;50.826;9.030;2024-01-15T00:53:35;97210.50;;;3.13;67.60
68137;BME280;54939;50.826;9.030;2024-01-15T00:54:06;97207.72;;;3.15;67.79
68137;BME280;54939;50.826;9.030;2024-01-15T00:54:36;97204.25;;;3.14;67.05
68137;BME280;54939;50.826;9.030;2024-01-15T00:55:06;97206.06;;;3.14;67.39
68137;BME280;54939;50.826;9.030;2024-01-15T00:55:37;97210.22;;;3.16;67.33
68137;BME280;54939;50.826;9.030;2024-01-15T00:56:07;97212.88;;;3.16;67.85
68137;BME280;54939;50.826;9.030;2024-01-15T00:56:37;97211.06;;;3.17;67.72
68137;BME280;54939;50.826;9.030;2024-01-15T00:57:08;97213.00;;;3.15;67.99
68137;BME280;54939;50.826;9.030;2024-01-15T00:57:38;97207.59;;;3.16;67.25
68137;BME280;54939;50.826;9.030;2024-01-15T00:58:08;97210.38;;;3.15;67.62
68137;BME280;54939;50.826;9.030;2024-01-15T00:58:38;97205.94;;;3.15;67.55
68137;BME280;54939;50.826;9.030;2024-01-15T00:59:08;97213.00;;;3.15;67.38
68137;BME280;54939;50.826;9.030;2024-01-15T00:59:40;97214.66;;;3.16;67.54
68137;BME280;54939;50.826;9.030;2024-01-15T01:00:10;97212.88;;;3.16;68.16
68137;BME280;54939;50.826;9.030;2024-01-15T01:00:41;97211.06;;;3.17;67.67
68137;BME280;54939;50.826;9.030;2024-01-15T01:01:11;97212.72;;;3.18;67.35
68137;BME280;54939;50.826;9.030;2024-01-15T01:01:41;97213.69;;;3.17;67.46
68137;BME280;54939;50.826;9.030;2024-01-15T01:02:15;97211.91;;;3.17;68.04
68137;BME280;54939;50.826;9.030;2024-01-15T01:02:46;97211.91;;;3.17;67.57
68137;BME280;54939;50.826;9.030;2024-01-15T01:03:16;97213.69;;;3.17;67.22
68137;BME280;54939;50.826;9.030;2024-01-15T01:03:46;97209.53;;;3.14;67.60
68137;BME280;54939;50.826;9.030;2024-01-15T01:04:16;97212.88;;;3.16;67.46
68137;BME280;54939;50.826;9.030;2024-01-15T01:04:46;97205.78;;;3.17;67.49
68137;BME280;54939;50.826;9.030;2024-01-15T01:05:16;97214.53;;;3.17;67.74
68137;BME280;54939;50.826;9.030;2024-01-15T01:05:49;97211.91;;;3.17;67.70
68137;BME280;54939;50.826;9.030;2024-01-15T01:06:20;97202.31;;;3.16;66.95
68137;BME280;54939;50.826;9.030;2024-01-15T01:06:50;97201.34;;;3.17;67.88
68137;BME280;54939;50.826;9.030;2024-01-15T01:07:20;97201.34;;;3.17;67.77
68137;BME280;54939;50.826;9.030;2024-01-15T01:07:50;97203.28;;;3.15;67.57
68137;BME280;54939;50.826;9.030;2024-01-15T01:08:20;97199.81;;;3.15;67.51
68137;BME280;54939;50.826;9.030;2024-01-15T01:08:50;97207.47;;;3.18;67.87
68137;BME280;54939;50.826;9.030;2024-01-15T01:09:21;97204.81;;;3.18;67.15
68137;BME280;54939;50.826;9.030;2024-01-15T01:09:51;97208.44;;;3.17;67.21
68137;BME280;54939;50.826;9.030;2024-01-15T01:10:21;97204.81;;;3.18;67.67
68137;BME280;54939;50.826;9.030;2024-01-15T01:10:51;97200.50;;;3.17;67.10
68137;BME280;54939;50.826;9.030;2024-01-15T01:11:21;97200.34;;;3.18;66.97
68137;BME280;54939;50.826;9.030;2024-01-15T01:11:51;97200.50;;;3.17;67.56
68137;BME280;54939;50.826;9.030;2024-01-15T01:12:21;97195.25;;;3.17;67.22
68137;BME280;54939;50.826;9.030;2024-01-15T01:12:52;97198.84;;;3.16;67.81
68137;BME280;54939;50.826;9.030;2024-01-15T01:13:22;97200.50;;;3.17;67.27
68137;BME280;54939;50.826;9.030;2024-01-15T01:13:52;97202.19;;;3.18;67.55
68137;BME280;54939;50.826;9.030;2024-01-15T01:14:22;97193.44;;;3.17;67.43
68137;BME280;54939;50.826;9.030;2024-01-15T01:14:53;97190.13;;;3.15;67.05
68137;BME280;54939;50.826;9.030;2024-01-15T01:15:23;97195.25;;;3.17;67.59
68137;BME280;54939;50.826;9.030;2024-01-15T01:15:54;97201.34;;;3.17;67.52
68137;BME280;54939;50.826;9.030;2024-01-15T01:16:24;97196.06;;;3.17;67.21
68137;BME280;54939;50.826;9.030;2024-01-15T01:16:54;97203.16;;;3.17;67.72
68137;BME280;54939;50.826;9.030;2024-01-15T01:17:25;97195.25;;;3.17;67.76
68137;BME280;54939;50.826;9.030;2024-01-15T01:17:55;97199.69;;;3.16;67.06
68137;BME280;54939;50.826;9.030;2024-01-15T01:18:25;97192.59;;;3.17;67.52
68137;BME280;54939;50.826;9.030;2024-01-15T01:18:55;97206.47;;;3.19;67.24
68137;BME280;54939;50.826;9.030;2024-01-15T01:19:25;97200.34;;;3.18;67.76
68137;BME280;54939;50.826;9.030;2024-01-15T01:19:56;97198.72;;;3.17;67.12
68137;BME280;54939;50.826;9.030;2024-01-15T01:20:26;97194.28;;;3.18;67.35
68137;BME280;54939;50.826;9.030;2024-01-15T01:20:56;97195.06;;;3.18;67.41
68137;BME280;54939;50.826;9.030;2024-01-15T01:21:26;97193.28;;;3.19;67.06
68137;BME280;54939;50.826;9.030;2024-01-15T01:21:56;97202.19;;;3.18;67.82
68137;BME280;54939;50.826;9.030;2024-01-15T01:22:27;97198.72;;;3.17;67.41
68137;BME280;54939;50.826;9.030;2024-01-15T01:22:57;97197.06;;;3.16;67.68
68137;BME280;54939;50.826;9.030;2024-01-15T01:23:27;97203.16;;;3.17;67.62
68137;BME280;54939;50.826;9.030;2024-01-15T01:23:57;97201.50;;;3.16;67.73
68137;BME280;54939;50.826;9.030;2024-01-15T01:24:27;97201.50;;;3.16;67.82
68137;BME280;54939;50.826;9.030;2024-01-15T01:24:57;97196.22;;;3.16;67.82
68137;BME280;54939;50.826;9.030;2024-01-15T01:25:27;97200.50;;;3.17;67.98
68137;BME280;54939;50.826;9.030;2024-01-15T01:25:58;97201.50;;;3.16;67.18
68137;BME280;54939;50.826;9.030;2024-01-15T01:26:28;97196.22;;;3.16;67.68
68137;BME280;54939;50.826;9.030;2024-01-15T01:26:58;97205.09;;;3.15;67.48
68137;BME280;54939;50.826;9.030;2024-01-15T01:27:28;97205.94;;;3.15;67.71
68137;BME280;54939;50.826;9.030;2024-01-15T01:27:58;97204.13;;;3.16;67.29
68137;BME280;54939;50.826;9.030;2024-01-15T01:28:28;97200.50;;;3.17;67.78
68137;BME280;54939;50.826;9.030;2024-01-15T01:28:59;97203.28;;;3.15;67.51
68137;BME280;54939;50.826;9.030;2024-01-15T01:29:29;97204.13;;;3.16;67.64
68137;BME280;54939;50.826;9.030;2024-01-15T01:29:59;97202.47;;;3.15;67.49
68137;BME280;54939;50.826;9.030;2024-01-15T01:30:29;97203.16;;;3.17;67.41
68137;BME280;54939;50.826;9.030;2024-01-15T01:30:59;97200.50;;;3.17;67.13
68137;BME280;54939;50.826;9.030;2024-01-15T01:31:29;97200.66;;;3.15;67.28
68137;BME280;54939;50.826;9.030;2024-01-15T01:32:00;97202.31;;;3.16;67.32
68137;BME280;54939;50.826;9.030;2024-01-15T01:32:30;97210.22;;;3.16;67.41
68137;BME280;54939;50.826;9.030;2024-01-15T01:33:00;97208.44;;;3.17;67.28
68137;BME280;54939;50.826;9.030;2024-01-15T01:33:30;97203.16;;;3.17;67.70
68137;BME280;54939;50.826;9.030;2024-01-15T01:34:00;97201.50;;;3.16;67.81
68137;BME280;54939;50.826;9.030;2024-01-15T01:34:32;97204.00;;;3.17;67.55
68137;BME280;54939;50.826;9.030;2024-01-15T01:35:02;97207.47;;;3.18;67.69
68137;BME280;54939;50.826;9.030;2024-01-15T01:35:33;97210.09;;;3.18;67.54
68137;BME280;54939;50.826;9.030;2024-01-15T01:36:06;97201.34;;;3.17;67.68
68137;BME280;54939;50.826;9.030;2024-01-15T01:36:36;97204.00;;;3.17;67.62
68137;BME280;54939;50.826;9.030;2024-01-15T01:37:06;97203.81;;;3.19;67.11
68137;BME280;54939;50.826;9.030;2024-01-15T01:37:37;97206.63;;;3.17;67.57
68137;BME280;54939;50.826;9.030;2024-01-15T01:38:07;97212.88;;;3.16;67.60
68137;BME280;54939;50.826;9.030;2024-01-15T01:38:38;97204.97;;;3.16;67.49
68137;BME280;54939;50.826;9.030;2024-01-15T01:39:08;97208.44;;;3.17;67.71
68137;BME280;54939;50.826;9.030;2024-01-15T01:39:39;97204.00;;;3.17;67.18
68137;BME280;54939;50.826;9.030;2024-01-15T01:40:09;97214.53;;;3.17;67.67
68137;BME280;54939;50.826;9.030;2024-01-15T01:40:40;97213.69;;;3.17;67.62
68137;BME280;54939;50.826;9.030;2024-01-15T01:41:10;97212.03;;;3.16;67.04
68137;BME280;54939;50.826;9.030;2024-01-15T01:41:40;97205.78;;;3.17;67.43
68137;BME280;54939;50.826;9.030;2024-01-15T01:42:11;97202.31;;;3.16;67.78
68137;BME280;54939;50.826;9.030;2024-01-15T01:42:41;97209.41;;;3.16;67.42
68137;BME280;54939;50.826;9.030;2024-01-15T01:43:12;97212.88;;;3.16;67.44
68137;BME280;54939;50.826;9.030;2024-01-15T01:43:42;97213.69;;;3.17;67.73
68137;BME280;54939;50.826;9.030;2024-01-15T01:44:13;97202.97;;;3.18;67.34
68137;BME280;54939;50.826;9.030;2024-01-15T01:44:49;97200.34;;;3.18;67.78
68137;BME280;54939;50.826;9.030;2024-01-15T01:45:19;97197.88;;;3.17;67.30
68137;BME280;54939;50.826;9.030;2024-01-15T01:45:49;97209.25;;;3.17;67.52
68137;BME280;54939;50.826;9.030;2024-01-15T01:46:19;97204.66;;;3.20;67.59
68137;BME280;54939;50.826;9.030;2024-01-15T01:46:49;97203.81;;;3.19;67.62
68137;BME280;54939;50.826;9.030;2024-01-15T01:47:20;97201.19;;;3.19;67.61
68137;BME280;54939;50.826;9.030;2024-01-15T01:47:50;97207.28;;;3.20;67.66
68137;BME280;54939;50.826;9.030;2024-01-15T01:48:20;97206.47;;;3.19;67.33
68137;BME280;54939;50.826;9.030;2024-01-15T01:48:50;97202.97;;;3.18;67.58
68137;BME280;54939;50.826;9.030;2024-01-15T01:49:22;97202.19;;;3.18;67.33
68137;BME280;54939;50.826;9.030;2024-01-15T01:49:53;97200.50;;;3.17;67.67
68137;BME280;54939;50.826;9.030;2024-01-15T01:50:23;97200.50;;;3.17;67.17
68137;BME280;54939;50.826;9.030;2024-01-15T01:50:55;97204.81;;;3.18;67.42
68137;BME280;54939;50.826;9.030;2024-01-15T01:51:26;97208.25;;;3.18;67.47
68137;BME280;54939;50.826;9.030;2024-01-15T01:51:57;97211.91;;;3.17;67.51
68137;BME280;54939;50.826;9.030;2024-01-15T01:52:27;97204.97;;;3.16;67.92
68137;BME280;54939;50.826;9.030;2024-01-15T01:52:57;97206.75;;;3.16;67.53
68137;BME280;54939;50.826;9.030;2024-01-15T01:53:27;97204.13;;;3.16;67.93
68137;BME280;54939;50.826;9.030;2024-01-15T01:53:59;97210.09;;;3.18;67.53
68137;BME280;54939;50.826;9.030;2024-01-15T01:54:31;97208.13;;;3.20;67.25
68137;BME280;54939;50.826;9.030;2024-01-15T01:55:02;97208.13;;;3.20;67.57
68137;BME280;54939;50.826;9.030;2024-01-15T01:55:33;97209.25;;;3.17;67.55
68137;BME280;54939;50.826;9.030;2024-01-15T01:56:04;97211.72;;;3.19;67.61
68137;BME280;54939;50.826;9.030;2024-01-15T01:56:34;97205.63;;;3.18;67.72
68137;BME280;54939;50.826;9.030;2024-01-15T01:57:05;97207.28;;;3.20;67.78
68137;BME280;54939;50.826;9.030;2024-01-15T01:57:35;97207.28;;;3.20;67.26
68137;BME280;54939;50.826;9.030;2024-01-15T01:58:06;97204.66;;;3.20;67.51
68137;BME280;54939;50.826;9.030;2024-01-15T01:58:36;97206.47;;;3.19;67.71
68137;BME280;54939;50.826;9.030;2024-01-15T01:59:06;97209.94;;;3.20;67.89
68137;BME280;54939;50.826;9.030;2024-01-15T01:59:37;97208.44;;;3.17;67.56
68137;BME280;54939;50.826;9.030;2024-01-15T02:00:08;97206.63;;;3.17;67.15
68137;BME280;54939;50.826;9.030;2024-01-15T02:00:39;97212.72;;;3.18;67.07
68137;BME280;54939;50.826;9.030;2024-01-15T02:01:09;97216.16;;;3.18;67.29
68137;BME280;54939;50.826;9.030;2024-01-15T02:01:40;97210.91;;;3.18;67.67
68137;BME280;54939;50.826;9.030;2024-01-15T02:02:10;97207.47;;;3.18;67.21
68137;BME280;54939;50.826;9.030;2024-01-15T02:02:41;97213.53;;;3.18;66.99
68137;BME280;54939;50.826;9.030;2024-01-15T02:03:11;97209.25;;;3.17;67.53
68137;BME280;54939;50.826;9.030;2024-01-15T02:03:42;97218.97;;;3.17;67.76
68137;BME280;54939;50.826;9.030;2024-01-15T02:04:13;97211.91;;;3.17;67.70
68137;BME280;54939;50.826;9.030;2024-01-15T02:04:43;97215.38;;;3.18;67.79
68137;BME280;54939;50.826;9.030;2024-01-15T02:05:14;97211.91;;;3.17;67.62
68137;BME280;54939;50.826;9.030;2024-01-15T02:05:48;97212.72;;;3.18;67.25
68137;BME280;54939;50.826;9.030;2024-01-15T02:06:19;97213.69;;;3.17;67.64
68137;BME280;54939;50.826;9.030;2024-01-15T02:06:49;97208.25;;;3.18;67.72
68137;BME280;54939;50.826;9.030;2024-01-15T02:07:20;97211.72;;;3.19;67.23
68137;BME280;54939;50.826;9.030;2024-01-15T02:07:50;97210.09;;;3.18;67.53
68137;BME280;54939;50.826;9.030;2024-01-15T02:08:21;97210.09;;;3.18;68.00
68137;BME280;54939;50.826;9.030;2024-01-15T02:08:51;97212.72;;;3.18;67.26
68137;BME280;54939;50.826;9.030;2024-01-15T02:09:21;97208.44;;;3.17;67.30
68137;BME280;54939;50.826;9.030;2024-01-15T02:09:51;97204.81;;;3.18;67.96
68137;BME280;54939;50.826;9.030;2024-01-15T02:10:21;97208.44;;;3.17;68.04
68137;BME280;54939;50.826;9.030;2024-01-15T02:10:52;97218.81;;;3.18;68.09
68137;BME280;54939;50.826;9.030;2024-01-15T02:11:22;97223.09;;;3.20;67.61
68137;BME280;54939;50.826;9.030;2024-01-15T02:11:52;97211.91;;;3.17;67.63
68137;BME280;54939;50.826;9.030;2024-01-15T02:12:22;97211.06;;;3.17;67.93
68137;BME280;54939;50.826;9.030;2024-01-15T02:12:53;97211.72;;;3.19;67.16
68137;BME280;54939;50.826;9.030;2024-01-15T02:13:23;97211.06;;;3.17;67.49
68137;BME280;54939;50.826;9.030;2024-01-15T02:13:53;97218.00;;;3.18;67.62
68137;BME280;54939;50.826;9.030;2024-01-15T02:14:23;97213.69;;;3.17;67.66
68137;BME280;54939;50.826;9.030;2024-01-15T02:14:53;97211.91;;;3.17;67.63
68137;BME280;54939;50.826;9.030;2024-01-15T02:15:24;97207.47;;;3.18;67.61
68137;BME280;54939;50.826;9.030;2024-01-15T02:15:54;97209.41;;;3.16;67.67
68137;BME280;54939;50.826;9.030;2024-01-15T02:16:24;97205.94;;;3.15;67.86
68137;BME280;54939;50.826;9.030;2024-01-15T02:16:54;97205.09;;;3.15;67.21
68137;BME280;54939;50.826;9.030;2024-01-15T02:17:24;97213.00;;;3.15;67.55
68137;BME280;54939;50.826;9.030;2024-01-15T02:17:58;97202.47;;;3.15;67.58
68137;BME280;54939;50.826;9.030;2024-01-15T02:18:28;97206.75;;;3.16;67.68
68137;BME280;54939;50.826;9.030;2024-01-15T02:18:58;97213.84;;;3.15;67.38
68137;BME280;54939;50.826;9.030;2024-01-15T02:19:28;97212.03;;;3.16;67.22
68137;BME280;54939;50.826;9.030;2024-01-15T02:19:59;97208.44;;;3.17;67.92
68137;BME280;54939;50.826;9.030;2024-01-15T02:20:29;97207.59;;;3.16;67.81
68137;BME280;54939;50.826;9.030;2024-01-15T02:20:59;97208.44;;;3.17;67.68
68137;BME280;54939;50.826;9.030;2024-01-15T02:21:30;97212.03;;;3.16;67.68
68137;BME280;54939;50.826;9.030;2024-01-15T02:22:01;97211.91;;;3.17;67.66
68137;BME280;54939;50.826;9.030;2024-01-15T02:22:31;97208.25;;;3.18;67.86
68137;BME280;54939;50.826;9.030;2024-01-15T02:23:14;97211.06;;;3.17;67.71
68137;BME280;54939;50.826;9.030;2024-01-15T02:23:44;97208.44;;;3.17;67.11
68137;BME280;54939;50.826;9.030;2024-01-15T02:24:14;97204.00;;;3.17;67.87
68137;BME280;54939;50.826;9.030;2024-01-15T02:24:45;97199.69;;;3.16;67.13
68137;BME280;54939;50.826;9.030;2024-01-15T02:25:15;97200.50;;;3.17;67.89
68137;BME280;54939;50.826;9.030;2024-01-15T02:25:46;97202.47;;;3.15;67.70
68137;BME280;54939;50.826;9.030;2024-01-15T02:26:16;97200.78;;;3.14;67.26
68137;BME280;54939;50.826;9.030;2024-01-15T02:26:47;97206.91;;;3.14;67.71
68137;BME280;54939;50.826;9.030;2024-01-15T02:27:18;97205.94;;;3.15;67.43
68137;BME280;54939;50.826;9.030;2024-01-15T02:27:49;97198.84;;;3.16;67.44
68137;BME280;54939;50.826;9.030;2024-01-15T02:28:19;97199.81;;;3.15;67.46
68137;BME280;54939;50.826;9.030;2024-01-15T02:28:50;97191.91;;;3.15;67.30
68137;BME280;54939;50.826;9.030;2024-01-15T02:29:20;97198.84;;;3.16;67.60
68137;BME280;54939;50.826;9.030;2024-01-15T02:29:50;97196.34;;;3.14;67.78
68137;BME280;54939;50.826;9.030;2024-01-15T02:30:20;97195.53;;;3.14;67.64
68137;BME280;54939;50.826;9.030;2024-01-15T02:30:52;97200.66;;;3.15;67.96
68137;BME280;54939;50.826;9.030;2024-01-15T02:31:22;97195.38;;;3.15;67.25
68137;BME280;54939;50.826;9.030;2024-01-15T02:31:52;97200.50;;;3.17;67.38
68137;BME280;54939;50.826;9.030;2024-01-15T02:32:22;97193.44;;;3.17;67.26
68137;BME280;54939;50.826;9.030;2024-01-15T02:32:52;97191.78;;;3.16;67.26
68137;BME280;54939;50.826;9.030;2024-01-15T02:33:22;97192.59;;;3.17;67.56
68137;BME280;54939;50.826;9.030;2024-01-15T02:33:52;97189.13;;;3.16;67.09
68137;BME280;54939;50.826;9.030;2024-01-15T02:34:23;97186.50;;;3.16;67.34
68137;BME280;54939;50.826;9.030;2024-01-15T02:34:53;97200.50;;;3.17;67.58
68137;BME280;54939;50.826;9.030;2024-01-15T02:35:23;97204.00;;;3.17;67.70
68137;BME280;54939;50.826;9.030;2024-01-15T02:35:53;97200.34;;;3.18;67.58
68137;BME280;54939;50.826;9.030;2024-01-15T02:36:23;97202.31;;;3.16;67.50
68137;BME280;54939;50.826;9.030;2024-01-15T02:36:54;97198.84;;;3.16;67.70
68137;BME280;54939;50.826;9.030;2024-01-15T02:37:24;97205.09;;;3.15;67.78
68137;BME280;54939;50.826;9.030;2024-01-15T02:37:54;97205.94;;;3.15;67.79
68137;BME280;54939;50.826;9.030;2024-01-15T02:38:24;97205.09;;;3.15;67.50
68137;BME280;54939;50.826;9.030;2024-01-15T02:38:54;97206.75;;;3.16;67.76
68137;BME280;54939;50.826;9.030;2024-01-15T02:39:24;97208.44;;;3.17;67.27
68137;BME280;54939;50.826;9.030;2024-01-15T02:39:54;97209.41;;;3.16;67.93
68137;BME280;54939;50.826;9.030;2024-01-15T02:40:25;97211.19;;;3.15;67.88
68137;BME280;54939;50.826;9.030;2024-01-15T02:40:55;97206.75;;;3.16;67.95
68137;BME280;54939;50.826;9.030;2024-01-15T02:41:25;97209.41;;;3.16;68.05
68137;BME280;54939;50.826;9.030;2024-01-15T02:41:55;97204.97;;;3.16;67.27
68137;BME280;54939;50.826;9.030;2024-01-15T02:42:27;97213.69;;;3.17;67.48
68137;BME280;54939;50.826;9.030;2024-01-15T02:42:57;97207.59;;;3.16;67.03